createdAt,value
2018-09-02T00:01:42.567Z,21.90
2018-09-02T00:04:14.011Z,21.90
2018-09-02T00:06:45.435Z,21.80
2018-09-02T00:09:17.335Z,21.60
2018-09-02T00:11:48.871Z,21.60
2018-09-02T00:14:20.530Z,21.50
2018-09-02T00:16:52.082Z,21.40
2018-09-02T00:19:23.314Z,21.30
2018-09-02T00:21:55.090Z,21.20
2018-09-02T00:24:26.582Z,21.20
2018-09-02T00:26:57.975Z,21.10
2018-09-02T00:29:29.540Z,21.10
2018-09-02T00:32:01.196Z,21.10
2018-09-02T00:34:32.839Z,21.10
2018-09-02T00:37:04.330Z,21.10
2018-09-02T00:39:35.872Z,21.00
2018-09-02T00:42:07.415Z,21.00
2018-09-02T00:44:38.858Z,21.00
2018-09-02T00:47:10.313Z,21.00
2018-09-02T00:49:41.882Z,21.00
2018-09-02T00:52:13.257Z,21.00
2018-09-02T00:54:44.802Z,21.00
2018-09-02T00:57:15.926Z,21.00
2018-09-02T00:59:46.902Z,20.90
2018-09-02T01:02:17.969Z,20.70
2018-09-02T01:04:48.955Z,20.70
2018-09-02T01:07:20.291Z,20.70
2018-09-02T01:09:51.543Z,20.60
2018-09-02T01:12:22.831Z,20.50
2018-09-02T01:14:53.857Z,20.40
2018-09-02T01:17:25.259Z,20.40
2018-09-02T01:19:56.355Z,20.40
2018-09-02T01:22:27.325Z,20.40
2018-09-02T01:24:58.426Z,20.40
2018-09-02T01:27:29.435Z,20.40
2018-09-02T01:30:00.668Z,20.40
2018-09-02T01:32:31.957Z,20.50
2018-09-02T01:35:03.392Z,20.40
2018-09-02T01:37:34.611Z,20.30
2018-09-02T01:40:06.202Z,20.30
2018-09-02T01:42:37.357Z,20.30
2018-09-02T01:45:08.515Z,20.30
2018-09-02T01:47:39.766Z,20.30
2018-09-02T01:50:11.095Z,20.20
2018-09-02T01:52:42.289Z,20.30
2018-09-02T01:55:13.595Z,20.20
2018-09-02T01:57:46.428Z,20.10
2018-09-02T02:00:18.476Z,20.20
2018-09-02T02:02:50.275Z,20.20
2018-09-02T02:05:21.719Z,20.20
2018-09-02T02:07:52.962Z,20.20
2018-09-02T02:10:24.447Z,20.20
2018-09-02T02:12:55.739Z,20.10
2018-09-02T02:15:26.747Z,20.00
2018-09-02T02:17:57.950Z,20.00
2018-09-02T02:20:29.358Z,20.10
2018-09-02T02:23:00.593Z,20.10
2018-09-02T02:25:32.471Z,20.10
2018-09-02T02:28:03.835Z,20.10
2018-09-02T02:30:35.334Z,20.00
2018-09-02T02:33:07.068Z,20.00
2018-09-02T02:35:39.207Z,19.90
2018-09-02T02:38:10.655Z,19.90
2018-09-02T02:40:41.942Z,19.80
2018-09-02T02:43:13.162Z,19.90
2018-09-02T02:45:44.572Z,20.00
2018-09-02T02:48:16.031Z,20.10
2018-09-02T02:50:47.492Z,20.00
2018-09-02T02:53:19.029Z,20.20
2018-09-02T02:55:50.443Z,20.30
2018-09-02T02:58:21.596Z,20.20
2018-09-02T03:00:53.059Z,20.20
2018-09-02T03:03:24.753Z,20.20
2018-09-02T03:05:56.390Z,20.10
2018-09-02T03:08:27.743Z,20.10
2018-09-02T03:10:59.303Z,20.00
2018-09-02T03:13:30.691Z,20.00
2018-09-02T03:18:35.886Z,20.10
2018-09-02T03:21:07.491Z,20.10
2018-09-02T03:23:39.007Z,20.20
2018-09-02T03:26:10.442Z,20.20
2018-09-02T03:28:41.827Z,20.20
2018-09-02T03:31:13.172Z,20.20
2018-09-02T03:33:44.490Z,20.20
2018-09-02T03:36:16.246Z,20.20
2018-09-02T03:38:47.826Z,20.20
2018-09-02T03:41:19.042Z,20.20
2018-09-02T03:43:50.698Z,20.20
2018-09-02T03:46:21.943Z,20.20
2018-09-02T03:48:53.206Z,20.20
2018-09-02T03:51:25.070Z,20.20
2018-09-02T03:53:56.388Z,20.20
2018-09-02T03:56:27.877Z,20.20
2018-09-02T03:58:59.633Z,20.20
2018-09-02T04:01:31.378Z,20.10
2018-09-02T04:04:02.795Z,20.10
2018-09-02T04:06:34.619Z,20.10
2018-09-02T04:09:08.383Z,20.10
2018-09-02T04:11:40.014Z,20.10
2018-09-02T04:14:11.317Z,20.10
2018-09-02T04:16:42.759Z,20.10
2018-09-02T04:19:14.170Z,20.10
2018-09-02T04:21:46.071Z,20.10
2018-09-02T04:24:17.817Z,20.00
2018-09-02T04:26:49.467Z,20.00
2018-09-02T04:29:20.530Z,20.00
2018-09-02T04:31:51.695Z,20.00
2018-09-02T04:34:23.362Z,20.00
2018-09-02T04:36:54.726Z,20.00
2018-09-02T04:39:26.694Z,20.10
2018-09-02T04:41:58.215Z,20.00
2018-09-02T04:44:29.646Z,20.00
2018-09-02T04:47:01.118Z,20.00
2018-09-02T04:49:32.553Z,19.90
2018-09-02T04:52:04.068Z,19.90
2018-09-02T04:54:35.580Z,19.90
2018-09-02T04:57:06.990Z,19.80
2018-09-02T04:59:38.598Z,19.80
2018-09-02T05:02:10.002Z,19.90
2018-09-02T05:04:41.471Z,19.90
2018-09-02T05:07:12.923Z,20.00
2018-09-02T05:09:44.454Z,20.00
2018-09-02T05:12:15.911Z,20.00
2018-09-02T05:14:47.258Z,20.10
2018-09-02T05:17:19.846Z,20.10
2018-09-02T05:19:51.380Z,20.10
2018-09-02T05:22:23.081Z,20.10
2018-09-02T05:24:54.419Z,20.10
2018-09-02T05:27:25.954Z,20.10
2018-09-02T05:29:57.207Z,20.10
2018-09-02T05:32:28.886Z,20.10
2018-09-02T05:35:00.404Z,20.10
2018-09-02T05:37:31.850Z,20.10
2018-09-02T05:40:03.298Z,20.10
2018-09-02T05:42:35.091Z,20.10
2018-09-02T05:45:06.759Z,20.10
2018-09-02T05:47:38.221Z,20.10
2018-09-02T05:50:10.049Z,20.10
2018-09-02T05:52:41.482Z,20.10
2018-09-02T05:55:13.234Z,20.10
2018-09-02T05:57:44.598Z,20.00
2018-09-02T06:00:15.944Z,20.00
2018-09-02T06:02:47.189Z,20.00
2018-09-02T06:05:22.967Z,19.90
2018-09-02T06:07:55.159Z,19.90
2018-09-02T06:10:26.791Z,19.90
2018-09-02T06:12:58.142Z,19.80
2018-09-02T06:15:29.567Z,19.80
2018-09-02T06:18:01.186Z,19.80
2018-09-02T06:20:32.443Z,19.80
2018-09-02T06:23:03.873Z,19.80
2018-09-02T06:25:35.448Z,19.70
2018-09-02T06:28:07.443Z,19.70
2018-09-02T06:30:38.766Z,19.60
2018-09-02T06:33:10.109Z,19.60
2018-09-02T06:35:41.556Z,19.50
2018-09-02T06:38:13.014Z,19.50
2018-09-02T06:40:44.478Z,19.50
2018-09-02T06:43:15.750Z,19.40
2018-09-02T06:45:47.354Z,19.40
2018-09-02T06:48:20.778Z,19.40
2018-09-02T06:50:52.519Z,19.40
2018-09-02T06:53:23.876Z,19.30
2018-09-02T06:55:55.510Z,19.30
2018-09-02T06:58:26.797Z,19.30
2018-09-02T07:00:58.250Z,19.30
2018-09-02T07:03:30.178Z,19.30
2018-09-02T07:06:01.650Z,19.30
2018-09-02T07:08:32.920Z,19.20
2018-09-02T07:11:04.350Z,19.30
2018-09-02T07:13:36.003Z,19.20
2018-09-02T07:16:07.979Z,19.20
2018-09-02T07:18:39.798Z,19.30
2018-09-02T07:21:11.315Z,19.30
2018-09-02T07:23:42.675Z,19.30
2018-09-02T07:26:14.150Z,19.30
2018-09-02T07:28:45.646Z,19.20
2018-09-02T07:31:17.134Z,19.20
2018-09-02T07:33:48.598Z,19.20
2018-09-02T07:36:20.074Z,19.20
2018-09-02T07:38:51.792Z,19.20
2018-09-02T07:41:23.286Z,19.20
2018-09-02T07:43:55.570Z,19.10
2018-09-02T07:46:26.976Z,19.10
2018-09-02T07:48:58.647Z,19.10
2018-09-02T07:51:30.294Z,19.10
2018-09-02T07:54:01.935Z,19.10
2018-09-02T07:56:33.407Z,19.00
2018-09-02T07:59:04.728Z,19.00
2018-09-02T08:01:36.823Z,18.90
2018-09-02T08:04:08.371Z,19.00
2018-09-02T08:06:39.907Z,19.00
2018-09-02T08:09:12.478Z,19.00
2018-09-02T08:11:43.782Z,19.00
2018-09-02T08:14:15.843Z,19.00
2018-09-02T08:16:47.407Z,18.90
2018-09-02T08:19:18.813Z,18.90
2018-09-02T08:21:50.053Z,18.90
2018-09-02T08:24:21.503Z,18.90
2018-09-02T08:26:52.775Z,18.90
2018-09-02T08:29:24.259Z,18.90
2018-09-02T08:31:55.963Z,18.80
2018-09-02T08:34:27.322Z,18.90
2018-09-02T08:36:58.909Z,18.90
2018-09-02T08:39:30.506Z,18.80
2018-09-02T08:42:01.809Z,18.80
2018-09-02T08:44:33.441Z,18.90
2018-09-02T08:47:04.799Z,18.80
2018-09-02T08:49:36.414Z,18.80
2018-09-02T08:52:07.971Z,18.80
2018-09-02T08:54:39.403Z,18.80
2018-09-02T08:57:10.695Z,18.70
2018-09-02T08:59:42.170Z,18.90
2018-09-02T09:02:13.585Z,19.00
2018-09-02T09:04:44.935Z,19.00
2018-09-02T09:07:16.342Z,19.10
2018-09-02T09:09:47.866Z,19.10
2018-09-02T09:12:19.298Z,19.10
2018-09-02T09:14:50.750Z,19.20
2018-09-02T09:17:22.574Z,19.20
2018-09-02T09:19:54.542Z,19.10
2018-09-02T09:22:25.851Z,19.10
2018-09-02T09:24:57.281Z,19.00
2018-09-02T09:27:28.870Z,19.00
2018-09-02T09:30:00.205Z,19.00
2018-09-02T09:32:32.467Z,18.90
2018-09-02T09:35:03.851Z,18.90
2018-09-02T09:37:35.364Z,18.80
2018-09-02T09:40:07.111Z,18.90
2018-09-02T09:42:38.514Z,18.80
2018-09-02T09:45:09.979Z,18.80
2018-09-02T09:47:41.632Z,18.80
2018-09-02T09:50:12.955Z,18.80
2018-09-02T09:52:44.519Z,18.70
2018-09-02T09:55:16.198Z,18.80
2018-09-02T09:57:47.807Z,18.80
2018-09-02T10:00:23.831Z,18.80
2018-09-02T10:02:55.775Z,18.70
2018-09-02T10:05:27.292Z,18.70
2018-09-02T10:07:59.118Z,18.70
2018-09-02T10:10:30.523Z,18.70
2018-09-02T10:13:03.187Z,18.70
2018-09-02T10:15:34.782Z,18.60
2018-09-02T10:18:06.557Z,18.50
2018-09-02T10:20:38.403Z,18.50
2018-09-02T10:23:09.882Z,18.50
2018-09-02T10:25:41.423Z,18.70
2018-09-02T10:28:13.198Z,18.80
2018-09-02T10:30:44.551Z,18.80
2018-09-02T10:33:15.987Z,18.90
2018-09-02T10:35:47.668Z,19.00
2018-09-02T10:38:19.254Z,19.00
2018-09-02T10:40:50.750Z,19.10
2018-09-02T10:43:22.211Z,19.10
2018-09-02T10:45:53.650Z,19.20
2018-09-02T10:48:25.763Z,19.30
2018-09-02T10:50:57.118Z,19.30
2018-09-02T10:53:28.550Z,19.30
2018-09-02T10:56:00.130Z,19.30
2018-09-02T10:58:31.399Z,19.40
2018-09-02T11:01:02.899Z,19.40
2018-09-02T11:03:34.277Z,19.40
2018-09-02T11:06:05.918Z,19.50
2018-09-02T11:08:37.414Z,19.60
2018-09-02T11:11:09.114Z,19.70
2018-09-02T11:13:40.881Z,19.70
2018-09-02T11:16:12.472Z,19.80
2018-09-02T11:18:44.111Z,19.80
2018-09-02T11:21:15.571Z,19.80
2018-09-02T11:23:47.215Z,19.90
2018-09-02T11:26:19.036Z,20.00
2018-09-02T11:28:50.519Z,20.00
2018-09-02T11:31:21.808Z,20.10
2018-09-02T11:33:53.504Z,20.10
2018-09-02T11:36:24.979Z,20.10
2018-09-02T11:38:56.455Z,20.20
2018-09-02T11:41:28.508Z,20.20
2018-09-02T11:44:00.262Z,20.30
2018-09-02T11:47:15.643Z,20.40
2018-09-02T11:49:46.891Z,20.50
2018-09-02T11:52:18.667Z,20.70
2018-09-02T11:54:50.014Z,20.80
2018-09-02T11:57:22.243Z,21.00
2018-09-02T11:59:53.576Z,21.20
2018-09-02T12:02:24.982Z,21.40
2018-09-02T12:04:56.520Z,21.70
2018-09-02T12:07:27.869Z,21.90
2018-09-02T12:09:59.091Z,21.90
2018-09-02T12:12:30.576Z,21.90
2018-09-02T12:15:01.991Z,21.90
2018-09-02T12:17:33.463Z,21.90
2018-09-02T12:20:04.981Z,22.00
2018-09-02T12:22:36.281Z,22.10
2018-09-02T12:25:07.367Z,22.10
2018-09-02T12:27:38.877Z,22.20
2018-09-02T12:30:09.999Z,22.20
2018-09-02T12:32:41.275Z,22.20
2018-09-02T12:35:12.902Z,22.20
2018-09-02T12:37:43.991Z,22.20
2018-09-02T12:40:15.076Z,22.20
2018-09-02T12:42:46.302Z,22.20
2018-09-02T12:45:17.737Z,22.30
2018-09-02T12:47:48.888Z,22.30
2018-09-02T12:50:20.307Z,22.40
2018-09-02T12:52:51.308Z,22.60
2018-09-02T12:55:22.749Z,22.70
2018-09-02T12:57:53.803Z,22.80
2018-09-02T13:00:24.836Z,22.80
2018-09-02T13:02:55.960Z,22.70
2018-09-02T13:05:26.976Z,22.60
2018-09-02T13:07:58.008Z,22.50
2018-09-02T13:10:29.054Z,22.50
2018-09-02T13:13:00.139Z,22.40
2018-09-02T13:16:01.890Z,22.40
2018-09-02T13:18:32.898Z,22.40
2018-09-02T13:21:03.847Z,22.40
2018-09-02T13:23:34.846Z,22.50
2018-09-02T13:26:05.963Z,22.50
2018-09-02T13:28:36.904Z,22.60
2018-09-02T13:31:17.256Z,22.50
2018-09-02T13:33:48.562Z,22.60
2018-09-02T13:36:19.561Z,22.70
2018-09-02T13:38:50.558Z,22.80
2018-09-02T13:41:21.694Z,22.80
2018-09-02T13:43:52.770Z,23.00
2018-09-02T13:46:24.008Z,23.10
2018-09-02T13:48:55.140Z,23.40
2018-09-02T13:51:26.204Z,23.50
2018-09-02T13:53:57.201Z,23.50
2018-09-02T13:56:28.526Z,23.70
2018-09-02T13:58:59.587Z,23.80
2018-09-02T14:01:30.633Z,23.70
2018-09-02T14:04:01.903Z,23.70
2018-09-02T14:06:33.047Z,23.60
2018-09-02T14:09:04.527Z,23.50
2018-09-02T14:11:35.663Z,23.60
2018-09-02T14:14:06.887Z,23.60
2018-09-02T14:16:37.907Z,23.70
2018-09-02T14:19:08.955Z,23.70
2018-09-02T14:21:39.967Z,23.80
2018-09-02T14:24:11.043Z,23.80
2018-09-02T14:26:42.123Z,23.80
2018-09-02T14:29:13.235Z,23.90
2018-09-02T14:31:44.253Z,23.80
2018-09-02T14:34:15.843Z,23.80
2018-09-02T14:36:47.092Z,23.70
2018-09-02T14:39:18.555Z,23.80
2018-09-02T14:41:49.667Z,24.00
2018-09-02T14:44:20.935Z,24.20
2018-09-02T14:46:52.498Z,24.30
2018-09-02T14:49:24.111Z,24.40
2018-09-02T14:51:55.059Z,24.30
2018-09-02T14:54:26.090Z,24.30
2018-09-02T14:56:57.418Z,24.30
2018-09-02T14:59:28.791Z,24.20
2018-09-02T15:01:59.940Z,24.20
2018-09-02T15:04:31.271Z,24.10
2018-09-02T15:07:02.626Z,24.20
2018-09-02T15:09:34.035Z,24.00
2018-09-02T15:12:05.364Z,24.00
2018-09-02T15:14:36.787Z,23.80
2018-09-02T15:17:08.231Z,23.60
2018-09-02T15:19:39.251Z,23.50
2018-09-02T15:22:10.323Z,23.40
2018-09-02T15:24:41.603Z,23.40
2018-09-02T15:27:12.753Z,23.50
2018-09-02T15:29:44.067Z,23.70
2018-09-02T15:32:15.193Z,23.80
2018-09-02T15:34:47.195Z,24.00
2018-09-02T15:37:18.507Z,24.00
2018-09-02T15:39:50.293Z,24.00
2018-09-02T15:42:21.618Z,23.90
2018-09-02T15:44:52.983Z,24.00
2018-09-02T15:47:24.739Z,24.10
2018-09-02T15:49:55.992Z,24.20
2018-09-02T15:52:27.559Z,24.50
2018-09-02T15:54:58.808Z,24.70
2018-09-02T15:57:30.030Z,24.70
2018-09-02T16:00:01.215Z,24.80
2018-09-02T16:02:32.343Z,25.00
2018-09-02T16:05:03.374Z,25.30
2018-09-02T16:07:34.406Z,25.40
2018-09-02T16:10:05.507Z,25.30
2018-09-02T16:12:36.672Z,25.30
2018-09-02T16:15:07.802Z,25.40
2018-09-02T16:17:39.322Z,25.40
2018-09-02T16:20:11.275Z,25.50
2018-09-02T16:22:42.650Z,25.50
2018-09-02T16:25:14.062Z,25.30
2018-09-02T16:27:45.702Z,25.60
2018-09-02T16:30:17.383Z,26.00
2018-09-02T16:32:49.191Z,26.30
2018-09-02T16:35:20.647Z,26.00
2018-09-02T16:37:52.121Z,26.10
2018-09-02T16:40:23.895Z,26.10
2018-09-02T16:42:55.504Z,26.00
2018-09-02T16:45:27.493Z,26.00
2018-09-02T16:50:24.659Z,26.50
2018-09-02T16:52:56.332Z,27.10
2018-09-02T16:55:27.470Z,27.70
2018-09-02T16:57:58.754Z,27.90
2018-09-02T17:00:29.935Z,27.90
2018-09-02T17:03:01.098Z,27.70
2018-09-02T17:05:32.219Z,27.60
2018-09-02T17:08:04.234Z,27.60
2018-09-02T17:10:35.604Z,27.60
2018-09-02T17:13:07.455Z,26.90
2018-09-02T17:15:39.258Z,26.60
2018-09-02T17:18:10.822Z,26.30
2018-09-02T17:20:44.454Z,26.30
2018-09-02T17:23:15.890Z,26.40
2018-09-02T17:25:47.573Z,26.20
2018-09-02T17:28:19.292Z,26.30
2018-09-02T17:30:50.688Z,26.10
2018-09-02T17:33:21.782Z,25.90
2018-09-02T17:35:53.030Z,25.60
2018-09-02T17:38:24.275Z,25.60
2018-09-02T17:40:55.704Z,25.70
2018-09-02T17:43:27.064Z,25.90
2018-09-02T17:45:58.345Z,25.90
2018-09-02T17:48:29.932Z,26.00
2018-09-02T17:51:01.217Z,26.00
2018-09-02T17:53:32.804Z,26.10
2018-09-02T17:56:04.331Z,25.90
2018-09-02T17:58:36.195Z,25.80
2018-09-02T18:01:07.794Z,25.80
2018-09-02T18:03:39.162Z,25.90
2018-09-02T18:06:10.615Z,25.80
2018-09-02T18:08:42.302Z,26.00
2018-09-02T18:11:14.136Z,26.30
2018-09-02T18:13:45.602Z,26.40
2018-09-02T18:16:17.577Z,26.40
2018-09-02T18:18:49.154Z,26.40
2018-09-02T18:21:20.864Z,26.30
2018-09-02T18:23:52.378Z,26.10
2018-09-02T18:26:24.337Z,26.00
2018-09-02T18:28:55.879Z,26.00
2018-09-02T18:31:27.380Z,26.00
2018-09-02T18:33:59.150Z,25.80
2018-09-02T18:36:30.885Z,25.80
2018-09-02T18:39:02.541Z,25.80
2018-09-02T18:41:33.903Z,25.90
2018-09-02T18:44:05.348Z,26.00
2018-09-02T18:46:36.942Z,26.20
2018-09-02T18:49:08.765Z,26.40
2018-09-02T18:51:40.239Z,26.50
2018-09-02T18:54:11.612Z,26.60
2018-09-02T18:56:42.999Z,26.70
2018-09-02T18:59:14.580Z,26.90
2018-09-02T19:01:45.814Z,27.50
2018-09-02T19:04:17.062Z,27.90
2018-09-02T19:06:48.296Z,27.70
2018-09-02T19:09:19.306Z,27.80
2018-09-02T19:11:50.629Z,27.90
2018-09-02T19:14:21.880Z,27.90
2018-09-02T19:16:53.184Z,27.80
2018-09-02T19:19:24.605Z,27.80
2018-09-02T19:21:55.898Z,27.70
2018-09-02T19:24:26.911Z,27.50
2018-09-02T19:26:57.957Z,27.40
2018-09-02T19:29:28.938Z,27.10
2018-09-02T19:32:00.676Z,26.70
2018-09-02T19:34:32.126Z,26.60
2018-09-02T19:37:03.538Z,26.40
2018-09-02T19:39:35.630Z,26.30
2018-09-02T19:42:07.123Z,26.00
2018-09-02T19:44:38.755Z,25.60
2018-09-02T19:47:10.912Z,25.40
2018-09-02T19:49:42.339Z,25.30
2018-09-02T19:52:13.930Z,25.20
2018-09-02T19:54:45.871Z,25.00
2018-09-02T19:57:17.239Z,24.80
2018-09-02T19:59:48.780Z,24.80
2018-09-02T20:02:20.323Z,24.70
2018-09-02T20:04:51.603Z,24.70
2018-09-02T20:07:23.142Z,24.70
2018-09-02T20:09:54.528Z,24.70
2018-09-02T20:12:26.142Z,24.70
2018-09-02T20:14:57.539Z,24.70
2018-09-02T20:17:29.032Z,24.70
2018-09-02T20:20:00.548Z,24.70
2018-09-02T20:22:32.142Z,24.80
2018-09-02T20:25:03.723Z,24.80
2018-09-02T20:27:35.195Z,24.80
2018-09-02T20:30:07.511Z,24.80
2018-09-02T20:32:38.808Z,24.80
2018-09-02T20:35:10.271Z,25.00
2018-09-02T20:37:41.751Z,25.10
2018-09-02T20:40:13.507Z,25.30
2018-09-02T20:42:44.954Z,25.30
2018-09-02T20:45:16.527Z,25.40
2018-09-02T20:47:47.755Z,25.50
2018-09-02T20:50:19.097Z,25.60
2018-09-02T20:52:50.669Z,25.80
2018-09-02T20:55:22.043Z,25.90
2018-09-02T20:57:53.438Z,26.00
2018-09-02T21:00:39.640Z,26.20
2018-09-02T21:03:11.117Z,26.40
2018-09-02T21:05:42.712Z,26.90
2018-09-02T21:08:14.345Z,27.00
2018-09-02T21:10:45.715Z,27.00
2018-09-02T21:13:17.167Z,26.90
2018-09-02T21:15:48.688Z,26.70
2018-09-02T21:18:20.075Z,26.50
2018-09-02T21:20:51.700Z,26.40
2018-09-02T21:23:23.031Z,26.30
2018-09-02T21:25:54.454Z,26.30
2018-09-02T21:28:25.957Z,26.10
2018-09-02T21:30:57.594Z,26.10
2018-09-02T21:33:29.086Z,26.00
2018-09-02T21:36:00.594Z,25.80
2018-09-02T21:38:32.155Z,25.60
2018-09-02T21:41:05.174Z,25.60
2018-09-02T21:43:39.842Z,25.50
2018-09-02T21:46:11.193Z,25.40
2018-09-02T21:51:10.011Z,25.40
2018-09-02T21:53:41.879Z,25.50
2018-09-02T21:56:13.299Z,25.60
2018-09-02T21:58:44.852Z,25.60
2018-09-02T22:01:16.415Z,25.60
2018-09-02T22:03:48.182Z,25.70
2018-09-02T22:06:19.677Z,25.80
2018-09-02T22:08:51.044Z,25.90
2018-09-02T22:11:22.683Z,25.90
2018-09-02T22:13:54.418Z,26.00
2018-09-02T22:16:26.023Z,25.90
2018-09-02T22:18:57.409Z,26.00
2018-09-02T22:21:28.819Z,26.10
2018-09-02T22:24:00.201Z,26.10
2018-09-02T22:26:31.967Z,26.10
2018-09-02T22:29:04.186Z,26.10
2018-09-02T22:31:35.666Z,25.80
2018-09-02T22:34:07.215Z,25.70
2018-09-02T22:36:38.786Z,25.50
2018-09-02T22:39:10.990Z,25.40
2018-09-02T22:41:42.839Z,25.30
2018-09-02T22:44:14.663Z,25.20
2018-09-02T22:46:46.401Z,25.10
2018-09-02T22:49:17.863Z,25.00
2018-09-02T22:51:49.199Z,25.00
2018-09-02T22:54:21.009Z,24.90
2018-09-02T22:56:52.338Z,24.90
2018-09-02T22:59:23.815Z,24.90
2018-09-02T23:01:55.530Z,24.90
2018-09-02T23:04:26.960Z,24.90
2018-09-02T23:06:58.458Z,24.80
2018-09-02T23:09:29.891Z,24.70
2018-09-02T23:14:27.036Z,24.70
2018-09-02T23:16:58.270Z,24.60
2018-09-02T23:19:29.814Z,24.60
2018-09-02T23:24:26.804Z,24.50
2018-09-02T23:26:58.590Z,24.40
2018-09-02T23:29:30.048Z,24.30
2018-09-02T23:34:27.163Z,24.20
2018-09-02T23:36:58.378Z,24.10
2018-09-02T23:39:29.769Z,24.10
2018-09-02T23:44:26.703Z,24.10
2018-09-02T23:46:57.737Z,24.00
2018-09-02T23:49:29.066Z,23.90
2018-09-02T23:54:26.414Z,23.90
2018-09-02T23:56:57.570Z,23.80
2018-09-02T23:59:28.796Z,23.80
